LFMP Airport Information

Runway Information
Runway 13 Length 4150 ft width 66 ft
Elevation 143 ft Threshold 404 ft Heading 127
Runway 31 Length 4150 ft Width 66 ft
Elevation 131 ft Threshold 1158 ft Heading 307
Runway 15 Length 8202 ft width 148 ft
Elevation 130 ft Threshold 0 ft Heading 148
Runway 33 Length 8202 ft Width 148 ft
Elevation 135 ft Threshold 557 ft Heading 328
Airport Frequencies
Type APP Name PERPIGNAN Frequency 120.75 MHZ
Type ATIS Name ATIS Frequency 127.875 MHZ
Type TWR Name PERPIGNAN Frequency 121.9 MHZ
Airport Navaids
Type VOR-DME Name Perpignan Frequency 116250 KHZ
Airport Weather Information & NOTAM
ADDS - METARS form results

(2117 UTC 23 February 2019)
Data provider http://aviationweather.gov/metar/data/
 
METAR text: LFMP 232100Z AUTO 32004KT CAVOK 08/05 Q1029 BECMG 12010KT
Conditions at: LFMP (PERPIGNAN/RIVESA, FR) observed 2100 UTC 23 February 2019
Temperature: 8.0°C (46°F)
Dewpoint: 5.0°C (41°F) [RH = 81%]
Pressure (altimeter): 30.38 inches Hg (1029.0 mb)
Winds: from the NW (320 degrees) at 5 MPH (4 knots; 2.1 m/s)
Visibility: 6 or more miles (10+ km)
Ceiling: ceiling and visibility are OK
Clouds: unknown
Weather: no significant weather observed at this time

METAR text: LFMP 232030Z AUTO 35003KT CAVOK 08/05 Q1029 BECMG 12010KT
Conditions at: LFMP (PERPIGNAN/RIVESA, FR) observed 2030 UTC 23 February 2019
Temperature: 8.0°C (46°F)
Dewpoint: 5.0°C (41°F) [RH = 81%]
Pressure (altimeter): 30.38 inches Hg (1029.0 mb)
Winds: from the N (350 degrees) at 3 MPH (3 knots; 1.5 m/s)
Visibility: 6 or more miles (10+ km)
Ceiling: ceiling and visibility are OK
Clouds: unknown
Weather: no significant weather observed at this time

Forecast for: LFMP (PERPIGNAN/RIVESA, FR)
Text: TAF LFMP 231400Z 2315/2415 12010KT CAVOK
Forecast period: 1500 UTC 23 February 2019 to 0600 UTC 24 February 2019
Forecast type: FROM: standard forecast or significant change
Winds: from the ESE (120 degrees) at 12 MPH (10 knots; 5.1 m/s)
Visibility: 6 or more miles 10+ km)
Ceiling: unknown
Clouds: missing
Weather: NSW  (no significant weather)
Text: TEMPO 2315/2406 SCT010 BKN020
Forecast period: 1500 UTC 23 February 2019 to 0600 UTC 24 February 2019
Forecast type: TEMPORARY: The following changes expected for less than half the time period
Visibility: missing
Ceiling: 2000 feet AGL
Clouds: scattered clouds at 1000 feet AGL
broken clouds at 2000 feet AGL
Weather: no significant weather forecast for this period
Text: BECMG 2406/2408 CAVOK
Forecast period: 0600 to 1500 UTC 24 February 2019
Forecast type: BECOMING: Conditions expected to become as follows by 0800 UTC 24 February 2019
Winds: from the ESE (120 degrees) at 12 MPH (10 knots; 5.1 m/s)
Visibility: 6 or more miles 10+ km)
Ceiling: unknown
Clouds: missing
Weather: NSW  (no significant weather)